createdAt,value
2018-01-06T00:01:26.030Z,6.80
2018-01-06T00:03:54.401Z,6.80
2018-01-06T00:06:22.687Z,6.80
2018-01-06T00:08:51.007Z,6.80
2018-01-06T00:11:18.527Z,6.70
2018-01-06T00:13:46.759Z,6.80
2018-01-06T00:16:14.258Z,6.70
2018-01-06T00:18:42.566Z,6.80
2018-01-06T00:21:10.087Z,6.80
2018-01-06T00:23:38.395Z,6.80
2018-01-06T00:26:05.923Z,6.80
2018-01-06T00:28:34.167Z,6.80
2018-01-06T00:31:01.636Z,6.80
2018-01-06T00:33:29.142Z,6.80
2018-01-06T00:35:56.626Z,6.80
2018-01-06T00:38:24.096Z,6.80
2018-01-06T00:40:51.608Z,6.80
2018-01-06T00:43:19.080Z,6.80
2018-01-06T00:45:46.635Z,6.80
2018-01-06T00:48:14.158Z,6.80
2018-01-06T00:50:41.616Z,6.80
2018-01-06T00:53:10.743Z,6.70
2018-01-06T00:55:38.223Z,6.70
2018-01-06T00:58:05.740Z,6.70
2018-01-06T01:00:33.995Z,6.70
2018-01-06T01:03:01.504Z,6.70
2018-01-06T01:05:29.000Z,6.70
2018-01-06T01:07:56.490Z,6.70
2018-01-06T01:10:24.745Z,6.70
2018-01-06T01:12:52.225Z,6.70
2018-01-06T01:15:20.484Z,6.70
2018-01-06T01:17:47.945Z,6.70
2018-01-06T01:20:15.441Z,6.70
2018-01-06T01:22:42.917Z,6.60
2018-01-06T01:25:10.415Z,6.70
2018-01-06T01:27:37.872Z,6.70
2018-01-06T01:30:06.191Z,6.60
2018-01-06T01:32:33.653Z,6.70
2018-01-06T01:35:01.937Z,6.70
2018-01-06T01:37:29.412Z,6.70
2018-01-06T01:39:56.888Z,6.70
2018-01-06T01:42:24.379Z,6.70
2018-01-06T01:44:52.621Z,6.70
2018-01-06T01:47:20.081Z,6.70
2018-01-06T01:49:47.561Z,6.70
2018-01-06T01:52:15.870Z,6.70
2018-01-06T01:54:43.342Z,6.70
2018-01-06T01:57:10.806Z,6.70
2018-01-06T01:59:38.310Z,6.70
2018-01-06T02:02:06.550Z,6.70
2018-01-06T02:04:34.048Z,6.60
2018-01-06T02:07:02.273Z,6.70
2018-01-06T02:09:29.775Z,6.70
2018-01-06T02:11:58.003Z,6.60
2018-01-06T02:14:25.497Z,6.60
2018-01-06T02:16:52.974Z,6.70
2018-01-06T02:19:21.211Z,6.60
2018-01-06T02:21:48.785Z,6.60
2018-01-06T02:24:17.022Z,6.60
2018-01-06T02:26:44.520Z,6.60
2018-01-06T02:29:12.000Z,6.60
2018-01-06T02:31:40.246Z,6.60
2018-01-06T02:34:07.728Z,6.60
2018-01-06T02:36:35.984Z,6.60
2018-01-06T02:39:03.456Z,6.60
2018-01-06T02:41:30.932Z,6.60
2018-01-06T02:43:59.159Z,6.60
2018-01-06T02:46:26.639Z,6.60
2018-01-06T02:48:54.968Z,6.60
2018-01-06T02:51:22.440Z,6.60
2018-01-06T02:53:49.926Z,6.60
2018-01-06T02:56:17.406Z,6.60
2018-01-06T02:58:45.634Z,6.60
2018-01-06T03:01:13.132Z,6.60
2018-01-06T03:03:41.367Z,6.50
2018-01-06T03:06:08.858Z,6.50
2018-01-06T03:08:36.352Z,6.50
2018-01-06T03:11:03.823Z,6.50
2018-01-06T03:13:31.276Z,6.50
2018-01-06T03:15:59.682Z,6.50
2018-01-06T03:18:27.146Z,6.40
2018-01-06T03:20:54.774Z,6.40
2018-01-06T03:23:22.254Z,6.40
2018-01-06T03:25:49.736Z,6.40
2018-01-06T03:31:10.905Z,6.40
2018-01-06T03:33:38.373Z,6.40
2018-01-06T03:36:05.837Z,6.40
2018-01-06T03:38:33.311Z,6.40
2018-01-06T03:41:00.788Z,6.30
2018-01-06T03:43:28.281Z,6.30
2018-01-06T03:45:56.508Z,6.30
2018-01-06T03:48:24.829Z,6.30
2018-01-06T03:50:53.072Z,6.30
2018-01-06T03:53:20.549Z,6.30
2018-01-06T03:55:48.020Z,6.20
2018-01-06T03:58:15.747Z,6.30
2018-01-06T04:00:43.203Z,6.30
2018-01-06T04:03:10.684Z,6.30
2018-01-06T04:05:38.144Z,6.30
2018-01-06T04:08:05.638Z,6.30
2018-01-06T04:10:33.097Z,6.30
2018-01-06T04:13:00.580Z,6.30
2018-01-06T04:15:28.045Z,6.30
2018-01-06T04:17:55.530Z,6.30
2018-01-06T04:20:23.925Z,6.30
2018-01-06T04:22:52.171Z,6.30
2018-01-06T04:25:19.742Z,6.30
2018-01-06T04:27:47.227Z,6.30
2018-01-06T04:30:18.681Z,6.30
2018-01-06T04:32:46.155Z,6.30
2018-01-06T04:35:13.647Z,6.30
2018-01-06T04:37:41.119Z,6.30
2018-01-06T04:40:08.587Z,6.20
2018-01-06T04:42:36.064Z,6.20
2018-01-06T04:45:04.300Z,6.30
2018-01-06T04:47:31.809Z,6.20
2018-01-06T04:49:59.268Z,6.20
2018-01-06T04:52:26.746Z,6.20
2018-01-06T04:54:54.225Z,6.30
2018-01-06T04:57:21.705Z,6.30
2018-01-06T04:59:49.183Z,6.30
2018-01-06T05:02:17.429Z,6.30
2018-01-06T05:04:44.895Z,6.30
2018-01-06T05:07:12.363Z,6.30
2018-01-06T05:09:40.604Z,6.30
2018-01-06T05:12:08.067Z,6.30
2018-01-06T05:14:35.564Z,6.30
2018-01-06T05:17:03.816Z,6.20
2018-01-06T05:19:31.313Z,6.20
2018-01-06T05:21:58.786Z,6.20
2018-01-06T05:24:26.274Z,6.20
2018-01-06T05:26:53.764Z,6.20
2018-01-06T05:29:22.023Z,6.10
2018-01-06T05:31:49.493Z,6.20
2018-01-06T05:34:17.735Z,6.10
2018-01-06T05:36:45.201Z,6.10
2018-01-06T05:39:12.681Z,6.10
2018-01-06T05:41:40.912Z,6.10
2018-01-06T05:44:08.403Z,6.10
2018-01-06T05:46:35.868Z,6.10
2018-01-06T05:49:03.377Z,6.10
2018-01-06T05:51:30.851Z,6.10
2018-01-06T05:53:58.337Z,6.00
2018-01-06T05:56:25.804Z,6.00
2018-01-06T05:58:54.044Z,5.90
2018-01-06T06:01:21.512Z,5.90
2018-01-06T06:03:48.996Z,5.90
2018-01-06T06:06:17.240Z,5.90
2018-01-06T06:08:44.716Z,5.90
2018-01-06T06:11:12.220Z,6.00
2018-01-06T06:13:39.692Z,6.00
2018-01-06T06:16:07.188Z,6.00
2018-01-06T06:21:26.263Z,5.90
2018-01-06T06:23:53.732Z,5.90
2018-01-06T06:26:21.288Z,5.90
2018-01-06T06:28:49.522Z,5.90
2018-01-06T06:31:18.544Z,5.90
2018-01-06T06:33:46.007Z,5.90
2018-01-06T06:36:13.495Z,5.90
2018-01-06T06:38:41.719Z,5.90
2018-01-06T06:41:09.204Z,5.90
2018-01-06T06:43:36.678Z,6.00
2018-01-06T06:46:04.144Z,5.90
2018-01-06T06:48:32.402Z,5.90
2018-01-06T06:50:59.885Z,5.90
2018-01-06T06:53:28.107Z,5.90
2018-01-06T06:55:55.590Z,5.90
2018-01-06T06:58:23.060Z,5.90
2018-01-06T07:00:51.307Z,5.90
2018-01-06T07:03:18.763Z,5.90
2018-01-06T07:05:46.367Z,6.00
2018-01-06T07:08:14.630Z,6.00
2018-01-06T07:10:42.067Z,6.00
2018-01-06T07:13:09.543Z,5.90
2018-01-06T07:15:37.010Z,5.90
2018-01-06T07:18:05.652Z,5.80
2018-01-06T07:20:33.139Z,5.80
2018-01-06T07:23:01.373Z,5.90
2018-01-06T07:25:28.834Z,5.90
2018-01-06T07:27:56.311Z,5.90
2018-01-06T07:30:23.888Z,5.90
2018-01-06T07:32:51.343Z,5.90
2018-01-06T07:35:19.623Z,5.90
2018-01-06T07:37:47.096Z,5.90
2018-01-06T07:40:15.345Z,6.00
2018-01-06T07:42:43.584Z,6.00
2018-01-06T07:45:11.051Z,6.00
2018-01-06T07:47:38.528Z,6.00
2018-01-06T07:50:06.021Z,6.00
2018-01-06T07:52:34.272Z,6.00
2018-01-06T07:55:01.736Z,5.90
2018-01-06T07:57:29.233Z,6.00
2018-01-06T07:59:56.695Z,6.00
2018-01-06T08:02:24.167Z,6.00
2018-01-06T08:04:51.644Z,6.00
2018-01-06T08:07:19.114Z,6.10
2018-01-06T08:09:46.580Z,6.10
2018-01-06T08:12:14.061Z,6.10
2018-01-06T08:14:42.294Z,6.10
2018-01-06T08:17:09.800Z,6.10
2018-01-06T08:19:37.288Z,6.10
2018-01-06T08:22:04.751Z,6.10
2018-01-06T08:24:32.209Z,6.20
2018-01-06T08:26:59.716Z,6.20
2018-01-06T08:29:27.958Z,6.10
2018-01-06T08:31:55.447Z,6.10
2018-01-06T08:34:23.673Z,6.20
2018-01-06T08:36:51.156Z,6.20
2018-01-06T08:39:18.643Z,6.20
2018-01-06T08:41:46.910Z,6.20
2018-01-06T08:44:15.139Z,6.20
2018-01-06T08:46:42.619Z,6.20
2018-01-06T08:49:10.096Z,6.20
2018-01-06T08:51:38.340Z,6.30
2018-01-06T08:54:05.819Z,6.20
2018-01-06T08:56:33.296Z,6.30
2018-01-06T08:59:01.550Z,6.30
2018-01-06T09:01:29.043Z,6.30
2018-01-06T09:03:57.271Z,6.40
2018-01-06T09:06:24.772Z,6.30
2018-01-06T09:08:53.015Z,6.40
2018-01-06T09:11:20.488Z,6.40
2018-01-06T09:13:47.996Z,6.40
2018-01-06T09:16:15.464Z,6.50
2018-01-06T09:18:42.969Z,6.50
2018-01-06T09:21:11.212Z,6.60
2018-01-06T09:23:38.686Z,6.60
2018-01-06T09:26:06.170Z,6.70
2018-01-06T09:28:34.421Z,6.80
2018-01-06T09:31:01.892Z,6.80
2018-01-06T09:33:30.149Z,6.90
2018-01-06T09:35:57.625Z,6.90
2018-01-06T09:38:25.885Z,7.00
2018-01-06T09:40:53.364Z,7.00
2018-01-06T09:43:21.624Z,7.20
2018-01-06T09:45:49.882Z,7.20
2018-01-06T09:48:17.359Z,7.20
2018-01-06T09:50:44.827Z,7.30
2018-01-06T09:53:13.089Z,7.30
2018-01-06T09:55:40.560Z,7.30
2018-01-06T09:58:09.856Z,7.40
2018-01-06T10:00:38.091Z,7.40
2018-01-06T10:03:05.569Z,7.40
2018-01-06T10:05:33.054Z,7.50
2018-01-06T10:08:01.357Z,7.50
2018-01-06T10:10:28.824Z,7.50
2018-01-06T10:12:56.297Z,7.60
2018-01-06T10:15:23.758Z,7.70
2018-01-06T10:17:51.251Z,7.80
2018-01-06T10:20:18.721Z,7.80
2018-01-06T10:22:47.910Z,8.00
2018-01-06T10:25:15.394Z,7.90
2018-01-06T10:27:42.867Z,8.10
2018-01-06T10:30:10.344Z,8.20
2018-01-06T10:32:37.825Z,8.20
2018-01-06T10:35:05.311Z,8.20
2018-01-06T10:37:33.548Z,8.20
2018-01-06T10:40:01.042Z,8.10
2018-01-06T10:42:29.276Z,8.10
2018-01-06T10:44:56.777Z,8.10
2018-01-06T10:47:25.044Z,8.10
2018-01-06T10:49:53.295Z,8.10
2018-01-06T10:52:20.755Z,8.00
2018-01-06T10:54:49.011Z,8.00
2018-01-06T10:57:16.480Z,8.00
2018-01-06T10:59:43.969Z,8.00
2018-01-06T11:02:12.208Z,8.10
2018-01-06T11:04:39.690Z,8.10
2018-01-06T11:07:07.166Z,8.10
2018-01-06T11:09:35.986Z,8.10
2018-01-06T11:12:03.456Z,8.10
2018-01-06T11:14:30.960Z,8.10
2018-01-06T11:16:59.209Z,8.10
2018-01-06T11:19:26.687Z,8.10
2018-01-06T11:21:54.156Z,8.10
2018-01-06T11:24:22.417Z,8.20
2018-01-06T11:26:49.886Z,8.20
2018-01-06T11:29:18.140Z,8.30
2018-01-06T11:31:46.364Z,8.30
2018-01-06T11:34:13.847Z,8.30
2018-01-06T11:36:41.323Z,8.40
2018-01-06T11:39:08.803Z,8.40
2018-01-06T11:41:36.308Z,8.40
2018-01-06T11:44:03.768Z,8.40
2018-01-06T11:46:31.236Z,8.40
2018-01-06T11:48:58.725Z,8.40
2018-01-06T11:51:27.178Z,8.40
2018-01-06T11:53:54.643Z,8.50
2018-01-06T11:56:22.129Z,8.50
2018-01-06T11:58:49.579Z,8.60
2018-01-06T12:01:17.272Z,8.60
2018-01-06T12:03:45.503Z,8.70
2018-01-06T12:06:12.992Z,8.70
2018-01-06T12:08:42.245Z,8.90
2018-01-06T12:11:09.747Z,8.90
2018-01-06T12:13:38.004Z,9.10
2018-01-06T12:16:06.243Z,9.00
2018-01-06T12:18:33.712Z,9.00
2018-01-06T12:21:01.191Z,9.00
2018-01-06T12:23:29.579Z,9.00
2018-01-06T12:25:57.062Z,9.00
2018-01-06T12:28:25.286Z,9.10
2018-01-06T12:30:52.784Z,9.10
2018-01-06T12:33:20.248Z,9.10
2018-01-06T12:35:48.500Z,9.20
2018-01-06T12:38:15.958Z,9.10
2018-01-06T12:40:43.446Z,9.20
2018-01-06T12:43:12.612Z,9.20
2018-01-06T12:45:40.080Z,9.20
2018-01-06T12:48:07.572Z,9.20
2018-01-06T12:50:35.051Z,9.20
2018-01-06T12:53:02.520Z,9.20
2018-01-06T12:55:29.988Z,9.20
2018-01-06T12:58:09.858Z,9.20
2018-01-06T13:00:38.107Z,9.20
2018-01-06T13:03:05.585Z,9.20
2018-01-06T13:05:33.047Z,9.20
2018-01-06T13:08:00.532Z,9.20
2018-01-06T13:10:27.997Z,9.20
2018-01-06T13:12:55.492Z,9.20
2018-01-06T13:15:22.951Z,9.20
2018-01-06T13:17:51.226Z,9.10
2018-01-06T13:20:18.690Z,9.10
2018-01-06T13:22:46.173Z,9.10
2018-01-06T13:25:15.314Z,9.10
2018-01-06T13:27:42.796Z,9.10
2018-01-06T13:30:10.282Z,9.10
2018-01-06T13:32:37.748Z,9.00
2018-01-06T13:35:05.996Z,9.00
2018-01-06T13:37:33.482Z,9.00
2018-01-06T13:40:01.728Z,8.90
2018-01-06T13:42:29.201Z,8.90
2018-01-06T13:44:56.692Z,8.90
2018-01-06T13:47:24.203Z,8.90
2018-01-06T13:49:51.692Z,8.90
2018-01-06T13:52:19.939Z,8.80
2018-01-06T13:54:47.388Z,8.80
2018-01-06T13:57:14.864Z,8.80
2018-01-06T13:59:43.910Z,8.80
2018-01-06T14:02:12.184Z,8.80
2018-01-06T14:04:39.647Z,8.80
2018-01-06T14:07:07.106Z,8.80
2018-01-06T14:09:34.582Z,8.70
2018-01-06T14:12:02.050Z,8.70
2018-01-06T14:14:32.897Z,8.70
2018-01-06T14:17:00.362Z,8.70
2018-01-06T14:19:27.837Z,8.70
2018-01-06T14:21:56.087Z,8.70
2018-01-06T14:24:24.337Z,8.70
2018-01-06T14:26:51.836Z,8.70
2018-01-06T14:29:20.105Z,8.60
2018-01-06T14:31:47.613Z,8.60
2018-01-06T14:34:15.099Z,8.70
2018-01-06T14:36:42.726Z,8.60
2018-01-06T14:39:10.211Z,8.60
2018-01-06T14:41:37.712Z,8.60
2018-01-06T14:44:05.940Z,8.60
2018-01-06T14:46:33.411Z,8.50
2018-01-06T14:49:00.920Z,8.60
2018-01-06T14:51:29.140Z,8.60
2018-01-06T14:53:56.664Z,8.60
2018-01-06T14:56:25.168Z,8.60
2018-01-06T14:58:52.661Z,8.60
2018-01-06T15:01:20.157Z,8.60
2018-01-06T15:03:47.632Z,8.60
2018-01-06T15:06:15.097Z,8.60
2018-01-06T15:08:42.614Z,8.60
2018-01-06T15:11:10.832Z,8.50
2018-01-06T15:13:38.308Z,8.50
2018-01-06T15:16:05.821Z,8.50
2018-01-06T15:18:33.340Z,8.40
2018-01-06T15:21:00.868Z,8.40
2018-01-06T15:23:28.332Z,8.30
2018-01-06T15:25:58.290Z,8.30
2018-01-06T15:28:25.813Z,8.20
2018-01-06T15:30:53.306Z,8.20
2018-01-06T15:33:21.586Z,8.10
2018-01-06T15:35:49.877Z,8.00
2018-01-06T15:38:18.104Z,7.90
2018-01-06T15:40:45.590Z,7.90
2018-01-06T15:43:13.059Z,7.70
2018-01-06T15:45:41.337Z,7.70
2018-01-06T15:48:09.556Z,7.50
2018-01-06T15:50:37.077Z,7.50
2018-01-06T15:53:05.348Z,7.40
2018-01-06T15:55:34.149Z,7.40
2018-01-06T15:58:01.607Z,7.30
2018-01-06T16:00:29.111Z,7.30
2018-01-06T16:02:56.615Z,7.20
2018-01-06T16:05:24.879Z,7.10
2018-01-06T16:07:53.146Z,7.10
2018-01-06T16:10:20.653Z,7.00
2018-01-06T16:12:48.159Z,7.00
2018-01-06T16:15:15.669Z,7.00
2018-01-06T16:17:43.135Z,7.00
2018-01-06T16:20:10.607Z,6.90
2018-01-06T16:22:38.098Z,6.80
2018-01-06T16:25:06.385Z,6.80
2018-01-06T16:27:34.652Z,6.80
2018-01-06T16:30:02.947Z,6.70
2018-01-06T16:32:31.182Z,6.70
2018-01-06T16:34:58.758Z,6.70
2018-01-06T16:37:26.999Z,6.60
2018-01-06T16:39:54.535Z,6.60
2018-01-06T16:42:22.792Z,6.50
2018-01-06T16:44:54.024Z,6.50
2018-01-06T16:47:22.285Z,6.50
2018-01-06T16:49:49.763Z,6.50
2018-01-06T16:52:18.004Z,6.40
2018-01-06T16:54:45.480Z,6.40
2018-01-06T16:57:13.715Z,6.20
2018-01-06T16:59:41.179Z,6.20
2018-01-06T17:02:08.713Z,6.20
2018-01-06T17:04:36.285Z,6.30
2018-01-06T17:07:04.512Z,6.20
2018-01-06T17:09:32.691Z,6.10
2018-01-06T17:12:00.977Z,6.10
2018-01-06T17:14:29.199Z,6.10
2018-01-06T17:16:56.704Z,6.10
2018-01-06T17:19:24.932Z,6.10
2018-01-06T17:21:52.413Z,6.10
2018-01-06T17:24:19.896Z,6.10
2018-01-06T17:26:48.198Z,6.00
2018-01-06T17:29:15.694Z,6.00
2018-01-06T17:31:43.253Z,6.00
2018-01-06T17:34:10.735Z,6.00
2018-01-06T17:36:38.255Z,5.90
2018-01-06T17:39:06.756Z,5.90
2018-01-06T17:41:34.258Z,5.90
2018-01-06T17:44:02.596Z,5.90
2018-01-06T17:46:30.080Z,5.80
2018-01-06T17:48:58.344Z,5.80
2018-01-06T17:51:25.891Z,5.80
2018-01-06T17:53:53.463Z,5.80
2018-01-06T17:56:20.985Z,5.80
2018-01-06T17:58:48.451Z,5.80
2018-01-06T18:01:15.970Z,5.80
2018-01-06T18:03:43.505Z,5.60
2018-01-06T18:06:10.976Z,5.60
2018-01-06T18:08:39.279Z,5.60
2018-01-06T18:11:06.828Z,5.60
2018-01-06T18:13:34.359Z,5.60
2018-01-06T18:16:02.596Z,5.60
2018-01-06T18:18:30.119Z,5.50
2018-01-06T18:20:57.648Z,5.50
2018-01-06T18:23:25.137Z,5.50
2018-01-06T18:25:52.662Z,5.50
2018-01-06T18:28:20.203Z,5.50
2018-01-06T18:30:47.695Z,5.50
2018-01-06T18:33:15.952Z,5.50
2018-01-06T18:35:44.211Z,5.50
2018-01-06T18:38:11.744Z,5.50
2018-01-06T18:40:39.273Z,5.50
2018-01-06T18:43:07.525Z,5.40
2018-01-06T18:45:38.728Z,5.40
2018-01-06T18:48:06.281Z,5.40
2018-01-06T18:50:33.803Z,5.40
2018-01-06T18:53:02.107Z,5.30
2018-01-06T18:55:29.668Z,5.30
2018-01-06T18:57:58.547Z,5.40
2018-01-06T19:00:26.084Z,5.40
2018-01-06T19:02:54.393Z,5.40
2018-01-06T19:05:21.902Z,5.40
2018-01-06T19:07:49.430Z,5.40
2018-01-06T19:10:16.947Z,5.40
2018-01-06T19:12:45.251Z,5.30
2018-01-06T19:15:12.721Z,5.30
2018-01-06T19:17:40.229Z,5.30
2018-01-06T19:20:08.533Z,5.30
2018-01-06T19:22:37.603Z,5.30
2018-01-06T19:25:05.896Z,5.30
2018-01-06T19:27:33.382Z,5.30
2018-01-06T19:30:00.924Z,5.30
2018-01-06T19:32:28.456Z,5.30
2018-01-06T19:34:56.741Z,5.30
2018-01-06T19:37:25.032Z,5.30
2018-01-06T19:39:52.604Z,5.30
2018-01-06T19:42:20.137Z,5.30
2018-01-06T19:44:48.436Z,5.30
2018-01-06T19:47:15.965Z,5.30
2018-01-06T19:49:44.260Z,5.20
2018-01-06T19:52:13.736Z,5.30
2018-01-06T19:54:42.044Z,5.20
2018-01-06T19:57:09.573Z,5.20
2018-01-06T19:59:37.908Z,5.00
2018-01-06T20:02:05.430Z,5.00
2018-01-06T20:04:32.968Z,5.10
2018-01-06T20:07:00.485Z,5.00
2018-01-06T20:12:59.833Z,5.10
2018-01-06T20:15:28.856Z,5.10
2018-01-06T20:17:57.139Z,5.00
2018-01-06T20:20:25.438Z,5.00
2018-01-06T20:22:52.965Z,5.00
2018-01-06T20:25:21.267Z,5.00
2018-01-06T20:27:48.783Z,5.00
2018-01-06T20:30:16.310Z,5.00
2018-01-06T20:32:43.863Z,5.00
2018-01-06T20:35:11.517Z,4.90
2018-01-06T20:37:39.030Z,4.90
2018-01-06T20:40:06.574Z,5.00
2018-01-06T20:42:34.192Z,4.90
2018-01-06T20:45:01.743Z,4.90
2018-01-06T20:47:29.261Z,4.90
2018-01-06T20:49:57.600Z,4.90
2018-01-06T20:52:25.128Z,4.90
2018-01-06T20:54:52.712Z,4.90
2018-01-06T20:57:20.240Z,4.90
2018-01-06T20:59:48.545Z,4.90
2018-01-06T21:02:16.049Z,4.80
2018-01-06T21:04:43.673Z,4.80
2018-01-06T21:07:11.228Z,4.80
2018-01-06T21:09:38.769Z,4.80
2018-01-06T21:12:06.287Z,4.80
2018-01-06T21:14:34.575Z,4.90
2018-01-06T21:17:02.901Z,5.00
2018-01-06T21:19:30.455Z,4.90
2018-01-06T21:21:58.019Z,5.00
2018-01-06T21:24:25.550Z,5.10
2018-01-06T21:26:53.837Z,5.00
2018-01-06T21:29:21.365Z,5.00
2018-01-06T21:31:48.895Z,5.00
2018-01-06T21:34:16.414Z,5.10
2018-01-06T21:36:44.718Z,5.10
2018-01-06T21:39:12.254Z,5.10
2018-01-06T21:41:39.798Z,5.10
2018-01-06T21:44:08.080Z,5.20
2018-01-06T21:46:35.609Z,5.10
2018-01-06T21:49:03.153Z,5.20
2018-01-06T21:51:30.694Z,5.20
2018-01-06T21:53:58.989Z,5.30
2018-01-06T21:56:26.545Z,5.30
2018-01-06T21:58:55.579Z,5.30
2018-01-06T22:01:23.876Z,5.30
2018-01-06T22:03:51.390Z,5.30
2018-01-06T22:06:18.955Z,5.30
2018-01-06T22:08:47.243Z,5.30
2018-01-06T22:11:15.555Z,5.40
2018-01-06T22:13:43.842Z,5.30
2018-01-06T22:16:11.364Z,5.40
2018-01-06T22:18:39.674Z,5.40
2018-01-06T22:21:07.225Z,5.40
2018-01-06T22:23:34.771Z,5.40
2018-01-06T22:26:02.336Z,5.40
2018-01-06T22:28:30.620Z,5.50
2018-01-06T22:30:58.156Z,5.50
2018-01-06T22:33:27.290Z,5.60
2018-01-06T22:35:54.824Z,5.60
2018-01-06T22:38:23.112Z,5.70
2018-01-06T22:40:50.618Z,5.60
2018-01-06T22:43:18.958Z,5.70
2018-01-06T22:45:46.483Z,5.70
2018-01-06T22:48:15.693Z,5.70
2018-01-06T22:50:43.222Z,5.70
2018-01-06T22:53:10.759Z,5.70
2018-01-06T22:55:38.283Z,5.80
2018-01-06T23:10:59.163Z,5.70
2018-01-06T23:13:26.704Z,5.70
2018-01-06T23:15:55.000Z,5.70
2018-01-06T23:18:22.563Z,5.70
2018-01-06T23:20:50.071Z,5.70
2018-01-06T23:23:17.610Z,5.70
2018-01-06T23:25:45.125Z,5.70
2018-01-06T23:28:12.680Z,5.60
2018-01-06T23:30:40.976Z,5.60
2018-01-06T23:33:08.507Z,5.50
2018-01-06T23:35:36.795Z,5.60
2018-01-06T23:38:05.098Z,5.50
2018-01-06T23:40:32.610Z,5.50
2018-01-06T23:43:01.094Z,5.50
2018-01-06T23:45:30.319Z,5.50
2018-01-06T23:47:57.851Z,5.40
2018-01-06T23:50:25.358Z,5.50
2018-01-06T23:52:52.870Z,5.50
2018-01-06T23:55:20.385Z,5.50
2018-01-06T23:57:47.903Z,5.50
